createdAt,value
2022-08-01T00:00:38.260Z,1.70
2022-08-01T00:03:06.013Z,2.30
2022-08-01T00:05:33.470Z,1.90
2022-08-01T00:08:00.824Z,1.90
2022-08-01T00:10:28.691Z,1.70
2022-08-01T00:12:55.943Z,2.00
2022-08-01T00:15:23.195Z,2.10
2022-08-01T00:17:50.451Z,1.80
2022-08-01T00:20:17.635Z,2.20
2022-08-01T00:22:44.960Z,2.00
2022-08-01T00:25:12.205Z,2.20
2022-08-01T00:27:39.467Z,2.40
2022-08-01T00:30:11.290Z,1.70
2022-08-01T00:32:44.407Z,2.00
2022-08-01T00:35:12.102Z,2.20
2022-08-01T00:37:39.325Z,2.10
2022-08-01T00:40:07.902Z,2.00
2022-08-01T00:42:37.155Z,2.30
2022-08-01T00:45:08.454Z,1.70
2022-08-01T00:47:35.802Z,1.60
2022-08-01T00:50:05.873Z,1.50
2022-08-01T00:52:34.823Z,1.90
2022-08-01T00:55:02.578Z,1.80
2022-08-01T00:58:02.203Z,2.10
2022-08-01T01:00:18.686Z,2.10
2022-08-01T01:02:54.542Z,1.90
2022-08-01T01:05:22.105Z,2.10
2022-08-01T01:07:57.649Z,1.90
2022-08-01T01:11:02.315Z,1.90
2022-08-01T01:13:36.795Z,2.00
2022-08-01T01:16:20.699Z,2.20
2022-08-01T01:18:54.163Z,2.00
2022-08-01T01:21:22.603Z,2.30
2022-08-01T01:24:16.595Z,2.30
2022-08-01T01:26:49.512Z,2.10
2022-08-01T01:29:27.082Z,2.10
2022-08-01T01:32:05.633Z,1.40
2022-08-01T01:34:39.412Z,1.60
2022-08-01T01:37:12.281Z,1.80
2022-08-01T01:39:45.276Z,1.70
2022-08-01T01:44:51.278Z,1.80
2022-08-01T01:47:19.222Z,2.00
2022-08-01T01:49:50.147Z,1.90
2022-08-01T01:52:19.691Z,2.00
2022-08-01T01:54:53.046Z,2.00
2022-08-01T01:57:22.392Z,2.00
2022-08-01T01:59:52.150Z,2.20
2022-08-01T02:02:20.784Z,2.20
2022-08-01T02:04:49.847Z,2.10
2022-08-01T02:07:23.858Z,1.70
2022-08-01T02:09:53.873Z,1.70
2022-08-01T02:12:25.530Z,2.20
2022-08-01T02:17:23.140Z,2.10
2022-08-01T02:19:50.698Z,1.90
2022-08-01T02:22:28.763Z,2.10
2022-08-01T02:25:05.128Z,2.10
2022-08-01T02:27:43.094Z,2.40
2022-08-01T02:30:13.604Z,2.30
2022-08-01T02:33:16.122Z,2.10
2022-08-01T02:36:29.805Z,1.90
2022-08-01T02:38:38.906Z,1.70
2022-08-01T02:41:14.712Z,2.10
2022-08-01T02:43:47.052Z,2.40
2022-08-01T02:46:36.440Z,2.30
2022-08-01T02:49:08.341Z,2.40
2022-08-01T02:51:37.563Z,2.40
2022-08-01T02:54:08.012Z,2.10
2022-08-01T02:56:37.090Z,2.20
2022-08-01T02:59:13.778Z,2.20
2022-08-01T03:01:44.672Z,2.20
2022-08-01T03:04:12.869Z,2.40
2022-08-01T03:06:41.333Z,2.10
2022-08-01T03:09:14.220Z,1.90
2022-08-01T03:11:46.452Z,2.20
2022-08-01T03:14:15.495Z,2.20
2022-08-01T03:16:46.885Z,2.00
2022-08-01T03:19:15.224Z,1.90
2022-08-01T03:21:44.727Z,1.80
2022-08-01T03:24:14.245Z,2.30
2022-08-01T03:26:43.019Z,1.90
2022-08-01T03:29:17.338Z,2.00
2022-08-01T03:31:47.559Z,2.00
2022-08-01T03:34:14.959Z,2.10
2022-08-01T03:37:04.939Z,2.00
2022-08-01T03:39:37.292Z,1.90
2022-08-01T03:42:14.111Z,1.80
2022-08-01T03:44:42.630Z,2.10
2022-08-01T03:47:11.417Z,1.60
2022-08-01T03:49:46.054Z,2.00
2022-08-01T03:52:15.240Z,1.70
2022-08-01T03:54:48.499Z,1.80
2022-08-01T03:57:35.643Z,2.00
2022-08-01T04:00:10.409Z,1.50
2022-08-01T04:02:41.391Z,1.70
2022-08-01T04:05:09.128Z,1.70
2022-08-01T04:07:41.247Z,1.80
2022-08-01T04:10:09.323Z,1.70
2022-08-01T04:12:36.575Z,1.70
2022-08-01T04:15:05.225Z,1.60
2022-08-01T04:17:32.511Z,1.90
2022-08-01T04:19:59.660Z,1.70
2022-08-01T04:22:27.772Z,1.70
2022-08-01T04:24:58.439Z,1.60
2022-08-01T04:27:51.554Z,1.90
2022-08-01T04:30:22.259Z,1.70
2022-08-01T04:32:51.707Z,2.00
2022-08-01T04:35:23.466Z,1.90
2022-08-01T04:38:11.159Z,1.60
2022-08-01T04:40:39.217Z,1.90
2022-08-01T04:43:07.086Z,1.70
2022-08-01T04:45:35.401Z,1.90
2022-08-01T04:48:03.329Z,2.30
2022-08-01T04:50:30.685Z,2.50
2022-08-01T04:52:58.452Z,2.10
2022-08-01T04:55:25.598Z,1.90
2022-08-01T04:57:52.952Z,1.80
2022-08-01T05:00:20.106Z,1.50
2022-08-01T05:02:47.970Z,1.70
2022-08-01T05:05:16.078Z,1.60
2022-08-01T05:07:45.114Z,1.60
2022-08-01T05:10:13.322Z,1.50
2022-08-01T05:12:40.462Z,1.50
2022-08-01T05:15:13.149Z,1.70
2022-08-01T05:17:45.509Z,1.70
2022-08-01T05:20:13.581Z,1.50
2022-08-01T05:22:41.447Z,1.80
2022-08-01T05:25:09.320Z,1.50
2022-08-01T05:27:42.544Z,1.70
2022-08-01T05:30:10.986Z,1.60
2022-08-01T05:32:39.299Z,1.60
2022-08-01T05:35:07.640Z,1.40
2022-08-01T05:37:35.042Z,1.30
2022-08-01T05:40:03.066Z,1.40
2022-08-01T05:42:30.215Z,1.50
2022-08-01T05:44:57.575Z,1.30
2022-08-01T05:47:25.031Z,1.30
2022-08-01T05:49:52.279Z,1.30
2022-08-01T05:52:19.531Z,1.30
2022-08-01T05:54:46.727Z,1.40
2022-08-01T05:57:14.826Z,1.40
2022-08-01T05:59:42.571Z,1.50
2022-08-01T06:02:10.133Z,1.50
2022-08-01T06:04:37.737Z,1.40
2022-08-01T06:07:04.990Z,1.30
2022-08-01T06:09:32.360Z,1.30
2022-08-01T06:11:59.599Z,2.00
2022-08-01T06:14:26.957Z,1.30
2022-08-01T06:16:54.304Z,1.60
2022-08-01T06:19:21.453Z,1.40
2022-08-01T06:21:48.811Z,1.80
2022-08-01T06:24:16.070Z,2.30
2022-08-01T06:26:43.722Z,1.90
2022-08-01T06:29:10.884Z,2.00
2022-08-01T06:31:39.572Z,2.20
2022-08-01T06:34:06.708Z,1.60
2022-08-01T06:36:33.960Z,1.60
2022-08-01T06:39:01.108Z,1.60
2022-08-01T06:41:28.257Z,1.50
2022-08-01T06:43:55.515Z,1.70
2022-08-01T06:48:29.022Z,1.50
2022-08-01T06:51:09.213Z,1.70
2022-08-01T06:53:38.223Z,2.10
2022-08-01T06:56:07.317Z,1.80
2022-08-01T06:58:35.770Z,1.40
2022-08-01T07:01:07.219Z,1.60
2022-08-01T07:03:53.431Z,1.50
2022-08-01T07:06:26.793Z,1.50
2022-08-01T07:08:54.655Z,1.80
2022-08-01T07:11:23.649Z,1.70
2022-08-01T07:13:51.413Z,1.60
2022-08-01T07:16:19.279Z,1.60
2022-08-01T07:18:46.641Z,1.70
2022-08-01T07:21:38.368Z,1.50
2022-08-01T07:24:01.208Z,2.10
2022-08-01T07:26:28.667Z,1.30
2022-08-01T07:28:56.237Z,1.70
2022-08-01T07:31:26.535Z,1.50
2022-08-01T07:33:55.853Z,1.80
2022-08-01T07:36:23.103Z,1.50
2022-08-01T07:38:50.356Z,1.60
2022-08-01T07:41:17.603Z,1.90
2022-08-01T07:43:54.382Z,1.80
2022-08-01T07:46:24.496Z,1.60
2022-08-01T07:48:51.791Z,1.60
2022-08-01T07:51:18.999Z,1.60
2022-08-01T07:53:46.152Z,1.40
2022-08-01T07:56:13.403Z,1.50
2022-08-01T07:58:40.655Z,1.60
2022-08-01T08:01:08.112Z,1.60
2022-08-01T08:03:35.367Z,1.80
2022-08-01T08:06:02.616Z,1.80
2022-08-01T08:08:30.383Z,1.70
2022-08-01T08:10:57.530Z,1.50
2022-08-01T08:13:24.682Z,1.50
2022-08-01T08:15:52.035Z,1.50
2022-08-01T08:18:19.286Z,1.60
2022-08-01T08:20:46.744Z,1.80
2022-08-01T08:23:42.052Z,1.70
2022-08-01T08:26:12.277Z,1.70
2022-08-01T08:28:40.627Z,1.50
2022-08-01T08:31:24.929Z,1.60
2022-08-01T08:33:53.384Z,1.40
2022-08-01T08:36:20.537Z,1.70
2022-08-01T08:38:48.093Z,1.80
2022-08-01T08:41:20.689Z,1.70
2022-08-01T08:43:48.743Z,1.60
2022-08-01T08:46:17.324Z,1.60
2022-08-01T08:48:45.548Z,1.50
2022-08-01T08:51:14.491Z,1.70
2022-08-01T08:53:45.781Z,1.70
2022-08-01T08:56:15.041Z,1.80
2022-08-01T08:58:44.924Z,1.90
2022-08-01T09:01:13.681Z,1.60
2022-08-01T09:03:41.982Z,1.70
2022-08-01T09:06:09.372Z,1.50
2022-08-01T09:08:36.928Z,1.70
2022-08-01T09:11:05.826Z,1.80
2022-08-01T09:13:33.173Z,2.00
2022-08-01T09:16:00.329Z,1.80
2022-08-01T09:18:44.880Z,1.80
2022-08-01T09:21:20.638Z,1.70
2022-08-01T09:23:55.359Z,1.90
2022-08-01T09:26:30.219Z,1.80
2022-08-01T09:29:00.485Z,2.00
2022-08-01T09:31:38.306Z,2.00
2022-08-01T09:34:06.627Z,2.00
2022-08-01T09:36:47.459Z,1.80
2022-08-01T09:39:16.037Z,2.50
2022-08-01T09:41:43.195Z,2.10
2022-08-01T09:44:10.488Z,2.20
2022-08-01T09:46:54.080Z,2.20
2022-08-01T09:49:50.998Z,2.20
2022-08-01T09:52:26.084Z,2.00
2022-08-01T09:55:02.282Z,2.40
2022-08-01T09:57:31.069Z,2.10
2022-08-01T10:00:01.856Z,2.20
2022-08-01T10:02:41.822Z,2.30
2022-08-01T10:05:18.921Z,2.60
2022-08-01T10:08:07.620Z,2.20
2022-08-01T10:10:37.455Z,2.50
2022-08-01T10:13:05.623Z,2.30
2022-08-01T10:15:36.538Z,2.10
2022-08-01T10:18:16.355Z,2.10
2022-08-01T10:20:56.445Z,2.60
2022-08-01T10:23:39.733Z,2.50
2022-08-01T10:26:09.300Z,2.40
2022-08-01T10:28:38.638Z,2.30
2022-08-01T10:31:12.641Z,2.70
2022-08-01T10:33:50.457Z,2.20
2022-08-01T10:36:26.107Z,2.50
2022-08-01T10:38:56.392Z,2.60
2022-08-01T10:41:25.338Z,2.60
2022-08-01T10:43:54.876Z,2.50
2022-08-01T10:46:22.744Z,2.50
2022-08-01T10:48:58.811Z,2.60
2022-08-01T10:51:51.571Z,2.60
2022-08-01T10:54:15.863Z,2.50
2022-08-01T10:56:51.807Z,2.60
2022-08-01T10:59:50.181Z,2.50
2022-08-01T11:02:32.134Z,2.90
2022-08-01T11:05:05.744Z,2.80
2022-08-01T11:07:45.717Z,2.20
2022-08-01T11:10:41.847Z,2.80
2022-08-01T11:13:13.605Z,2.90
2022-08-01T11:15:50.344Z,2.80
2022-08-01T11:18:38.317Z,2.80
2022-08-01T11:21:57.686Z,2.70
2022-08-01T11:23:54.735Z,2.50
2022-08-01T11:26:29.084Z,2.30
2022-08-01T11:29:23.219Z,2.50
2022-08-01T11:31:51.535Z,2.70
2022-08-01T11:34:18.970Z,2.70
2022-08-01T11:37:03.145Z,2.50
2022-08-01T11:39:31.840Z,2.60
2022-08-01T11:42:19.431Z,2.60
2022-08-01T11:44:52.612Z,3.10
2022-08-01T11:47:40.049Z,2.50
2022-08-01T11:50:07.915Z,2.70
2022-08-01T11:52:37.383Z,2.60
2022-08-01T11:55:04.576Z,2.90
2022-08-01T11:57:39.027Z,2.50
2022-08-01T12:00:15.550Z,2.80
2022-08-01T12:02:46.296Z,2.90
2022-08-01T12:05:16.105Z,3.00
2022-08-01T12:07:46.034Z,3.20
2022-08-01T12:10:16.554Z,3.40
2022-08-01T12:12:45.340Z,2.80
2022-08-01T12:15:13.413Z,2.40
2022-08-01T12:17:45.865Z,2.80
2022-08-01T12:20:29.820Z,2.70
2022-08-01T12:23:07.009Z,2.70
2022-08-01T12:25:34.919Z,2.60
2022-08-01T12:28:04.636Z,3.00
2022-08-01T12:30:36.352Z,3.10
2022-08-01T12:33:10.261Z,2.90
2022-08-01T12:35:39.706Z,2.80
2022-08-01T12:38:15.508Z,3.10
2022-08-01T12:40:45.861Z,2.90
2022-08-01T12:43:21.270Z,3.00
2022-08-01T12:45:59.508Z,2.80
2022-08-01T12:48:27.967Z,3.40
2022-08-01T12:50:58.931Z,3.00
2022-08-01T12:55:58.359Z,3.00
2022-08-01T12:58:36.294Z,3.10
2022-08-01T13:01:06.750Z,3.10
2022-08-01T13:03:34.086Z,3.00
2022-08-01T13:06:02.137Z,2.90
2022-08-01T13:08:34.550Z,2.80
2022-08-01T13:11:15.838Z,2.80
2022-08-01T13:13:48.501Z,2.90
2022-08-01T13:16:30.167Z,3.00
2022-08-01T13:19:07.110Z,2.40
2022-08-01T13:21:53.721Z,2.90
2022-08-01T13:24:29.881Z,2.90
2022-08-01T13:27:04.279Z,3.30
2022-08-01T13:29:33.603Z,2.70
2022-08-01T13:32:13.047Z,3.00
2022-08-01T13:35:06.131Z,3.00
2022-08-01T13:37:33.722Z,2.70
2022-08-01T13:40:00.976Z,3.00
2022-08-01T13:42:30.406Z,2.80
2022-08-01T13:44:57.731Z,3.30
2022-08-01T13:47:31.695Z,3.20
2022-08-01T13:50:04.156Z,3.30
2022-08-01T13:52:32.700Z,3.00
2022-08-01T13:55:02.613Z,3.00
2022-08-01T13:57:36.813Z,2.80
2022-08-01T14:00:09.710Z,3.00
2022-08-01T14:02:39.728Z,2.70
2022-08-01T14:05:07.493Z,2.80
2022-08-01T14:07:34.847Z,3.10
2022-08-01T14:10:18.299Z,3.30
2022-08-01T14:12:48.930Z,2.80
2022-08-01T14:15:36.560Z,2.60
2022-08-01T14:18:05.866Z,3.10
2022-08-01T14:20:34.857Z,2.80
2022-08-01T14:23:02.390Z,3.00
2022-08-01T14:26:05.499Z,2.50
2022-08-01T14:28:17.376Z,2.50
2022-08-01T14:30:44.833Z,2.50
2022-08-01T14:33:13.415Z,2.60
2022-08-01T14:36:06.115Z,3.10
2022-08-01T14:38:31.117Z,2.60
2022-08-01T14:41:00.469Z,2.30
2022-08-01T14:43:32.887Z,2.90
2022-08-01T14:46:01.580Z,2.40
2022-08-01T14:48:30.143Z,2.40
2022-08-01T14:50:58.593Z,2.50
2022-08-01T14:53:26.086Z,2.50
2022-08-01T14:55:53.296Z,2.40
2022-08-01T14:58:20.390Z,2.80
2022-08-01T15:00:48.160Z,2.40
2022-08-01T15:03:15.464Z,2.70
2022-08-01T15:05:42.715Z,2.20
2022-08-01T15:08:09.966Z,2.40
2022-08-01T15:10:37.320Z,2.80
2022-08-01T15:13:04.571Z,2.40
2022-08-01T15:15:32.034Z,2.80
2022-08-01T15:17:59.484Z,2.70
2022-08-01T15:20:28.172Z,3.20
2022-08-01T15:22:55.523Z,2.70
2022-08-01T15:25:22.718Z,2.80
2022-08-01T15:27:49.926Z,2.90
2022-08-01T15:30:17.177Z,2.80
2022-08-01T15:32:51.115Z,3.10
2022-08-01T15:35:18.751Z,2.90
2022-08-01T15:37:46.021Z,2.90
2022-08-01T15:40:13.356Z,2.80
2022-08-01T15:42:40.822Z,2.60
2022-08-01T15:45:20.631Z,2.80
2022-08-01T15:47:56.515Z,2.90
2022-08-01T15:50:23.765Z,2.90
2022-08-01T15:52:50.919Z,2.80
2022-08-01T15:55:18.270Z,2.70
2022-08-01T15:57:45.522Z,2.90
2022-08-01T16:00:13.564Z,2.80
2022-08-01T16:02:41.664Z,4.50
2022-08-01T16:05:09.631Z,3.20
2022-08-01T16:07:37.190Z,3.00
2022-08-01T16:10:24.415Z,2.70
2022-08-01T16:12:51.611Z,2.70
2022-08-01T16:15:18.917Z,2.90
2022-08-01T16:17:46.166Z,2.90
2022-08-01T16:20:13.368Z,2.90
2022-08-01T16:22:40.569Z,3.00
2022-08-01T16:25:08.180Z,3.10
2022-08-01T16:27:35.380Z,3.00
2022-08-01T16:30:06.849Z,2.60
2022-08-01T16:32:37.588Z,3.20
2022-08-01T16:35:13.455Z,2.90
2022-08-01T16:37:41.283Z,2.90
2022-08-01T16:40:09.047Z,2.60
2022-08-01T16:42:36.304Z,2.80
2022-08-01T16:45:12.816Z,2.90
2022-08-01T16:47:42.273Z,2.70
2022-08-01T16:50:12.289Z,3.10
2022-08-01T16:52:41.977Z,3.00
2022-08-01T16:55:11.447Z,2.90
2022-08-01T16:57:38.760Z,3.10
2022-08-01T17:00:21.161Z,3.70
2022-08-01T17:02:48.835Z,3.10
2022-08-01T17:05:16.385Z,3.40
2022-08-01T17:07:44.047Z,3.60
2022-08-01T17:10:12.116Z,3.40
2022-08-01T17:12:40.411Z,3.80
2022-08-01T17:15:08.773Z,3.70
2022-08-01T17:17:36.232Z,3.30
2022-08-01T17:20:04.094Z,3.20
2022-08-01T17:22:31.245Z,3.20
2022-08-01T17:24:58.453Z,3.20
2022-08-01T17:27:25.663Z,3.50
2022-08-01T17:29:53.103Z,3.60
2022-08-01T17:32:20.459Z,3.50
2022-08-01T17:34:47.710Z,3.50
2022-08-01T17:37:14.864Z,3.30
2022-08-01T17:39:42.110Z,2.90
2022-08-01T17:42:11.052Z,3.50
2022-08-01T17:44:38.976Z,3.20
2022-08-01T17:47:09.099Z,3.60
2022-08-01T17:49:54.283Z,2.90
2022-08-01T17:52:22.640Z,2.90
2022-08-01T17:54:49.994Z,2.90
2022-08-01T17:57:17.143Z,3.50
2022-08-01T17:59:45.240Z,2.90
2022-08-01T18:02:12.467Z,3.00
2022-08-01T18:04:44.099Z,3.70
2022-08-01T18:07:12.796Z,3.70
2022-08-01T18:09:45.532Z,3.80
2022-08-01T18:12:14.007Z,3.40
2022-08-01T18:14:43.840Z,3.30
2022-08-01T18:17:12.775Z,3.20
2022-08-01T18:19:40.536Z,3.30
2022-08-01T18:22:31.361Z,3.50
2022-08-01T18:24:55.112Z,3.60
2022-08-01T18:27:22.262Z,3.70
2022-08-01T18:29:49.410Z,2.30
2022-08-01T18:32:16.662Z,2.90
2022-08-01T18:34:43.751Z,2.90
2022-08-01T18:37:14.014Z,3.30
2022-08-01T18:39:43.813Z,4.10
2022-08-01T18:42:11.305Z,3.60
2022-08-01T18:44:38.457Z,4.40
2022-08-01T18:47:06.029Z,4.40
2022-08-01T18:49:33.606Z,4.30
2022-08-01T18:52:01.031Z,4.20
2022-08-01T18:54:28.297Z,3.80
2022-08-01T18:56:55.489Z,3.70
2022-08-01T18:59:22.888Z,3.30
2022-08-01T19:01:50.208Z,3.70
2022-08-01T19:04:17.542Z,2.60
2022-08-01T19:06:47.513Z,2.90
2022-08-01T19:09:20.318Z,2.90
2022-08-01T19:11:48.158Z,3.10
2022-08-01T19:14:15.614Z,3.30
2022-08-01T19:16:42.866Z,3.70
2022-08-01T19:19:10.017Z,3.40
2022-08-01T19:21:42.941Z,3.50
2022-08-01T19:24:23.444Z,4.50
2022-08-01T19:26:59.675Z,3.30
2022-08-01T19:29:37.939Z,3.60
2022-08-01T19:32:09.076Z,3.60
2022-08-01T19:34:44.193Z,3.00
2022-08-01T19:37:11.778Z,2.80
2022-08-01T19:39:43.959Z,3.10
2022-08-01T19:42:13.009Z,3.50
2022-08-01T19:44:40.703Z,3.50
2022-08-01T19:47:09.860Z,3.90
2022-08-01T19:49:37.713Z,4.50
2022-08-01T19:52:05.895Z,4.90
2022-08-01T19:54:38.047Z,4.20
2022-08-01T19:57:07.299Z,4.00
2022-08-01T19:59:35.995Z,4.30
2022-08-01T20:02:04.317Z,4.20
2022-08-01T20:04:33.780Z,3.30
2022-08-01T20:07:01.130Z,3.00
2022-08-01T20:09:28.890Z,3.30
2022-08-01T20:11:56.388Z,3.50
2022-08-01T20:14:26.876Z,3.70
2022-08-01T20:16:56.687Z,3.70
2022-08-01T20:19:25.985Z,3.40
2022-08-01T20:22:08.095Z,3.80
2022-08-01T20:24:43.446Z,3.60
2022-08-01T20:27:12.950Z,4.40
2022-08-01T20:29:41.515Z,5.80
2022-08-01T20:32:09.487Z,7.00
2022-08-01T20:34:38.786Z,7.10
2022-08-01T20:37:13.318Z,3.20
2022-08-01T20:39:44.933Z,3.30
2022-08-01T20:42:15.040Z,3.70
2022-08-01T20:44:43.665Z,3.60
2022-08-01T20:47:11.556Z,3.70
2022-08-01T20:49:39.209Z,3.70
2022-08-01T20:52:12.160Z,3.70
2022-08-01T20:54:41.991Z,5.40
2022-08-01T20:57:22.153Z,4.40
2022-08-01T21:00:02.305Z,4.50
2022-08-01T21:02:38.689Z,4.60
2022-08-01T21:05:07.044Z,4.20
2022-08-01T21:07:50.377Z,5.10
2022-08-01T21:10:20.803Z,3.20
2022-08-01T21:13:06.391Z,4.70
2022-08-01T21:16:11.155Z,3.10
2022-08-01T21:19:18.664Z,3.70
2022-08-01T21:22:10.328Z,3.50
2022-08-01T21:24:58.762Z,3.10
2022-08-01T21:27:33.497Z,3.20
2022-08-01T21:30:04.860Z,3.10
2022-08-01T21:32:34.368Z,3.10
2022-08-01T21:35:03.822Z,3.40
2022-08-01T21:37:31.738Z,3.30
2022-08-01T21:40:09.514Z,3.40
2022-08-01T21:42:39.660Z,2.20
2022-08-01T21:45:09.861Z,2.70
2022-08-01T21:47:38.253Z,2.70
2022-08-01T21:50:06.534Z,3.00
2022-08-01T21:52:50.530Z,3.50
2022-08-01T21:56:14.616Z,3.30
2022-08-01T21:58:55.018Z,3.40
2022-08-01T22:01:50.829Z,3.40
2022-08-01T22:04:38.571Z,3.80
2022-08-01T22:07:11.464Z,2.40
2022-08-01T22:09:46.000Z,2.90
2022-08-01T22:12:17.888Z,2.80
2022-08-01T22:14:48.947Z,3.20
2022-08-01T22:17:24.735Z,3.40
2022-08-01T22:19:55.509Z,3.60
2022-08-01T22:22:44.874Z,3.40
2022-08-01T22:25:12.501Z,3.10
2022-08-01T22:28:06.222Z,3.20
2022-08-01T22:30:30.395Z,2.00
2022-08-01T22:33:15.166Z,2.50
2022-08-01T22:35:46.763Z,2.80
2022-08-01T22:38:17.142Z,2.80
2022-08-01T22:41:00.936Z,3.40
2022-08-01T22:44:00.445Z,3.60
2022-08-01T22:46:34.085Z,3.30
2022-08-01T22:49:11.785Z,3.50
2022-08-01T22:51:55.375Z,3.30
2022-08-01T22:54:36.159Z,3.60
2022-08-01T22:57:07.576Z,2.20
2022-08-01T22:59:59.643Z,2.70
2022-08-01T23:02:29.136Z,2.80
2022-08-01T23:05:04.538Z,3.30
2022-08-01T23:07:38.889Z,3.10
2022-08-01T23:10:07.646Z,3.00
2022-08-01T23:12:35.139Z,3.40
2022-08-01T23:15:02.718Z,3.40
2022-08-01T23:17:31.603Z,3.50
2022-08-01T23:20:01.460Z,3.20
2022-08-01T23:22:32.221Z,2.40
2022-08-01T23:25:05.336Z,3.20
2022-08-01T23:27:55.738Z,3.10
2022-08-01T23:30:31.615Z,3.20
2022-08-01T23:32:59.654Z,3.30
2022-08-01T23:35:27.717Z,3.90
2022-08-01T23:38:02.840Z,3.70
2022-08-01T23:40:35.124Z,3.80
2022-08-01T23:43:04.423Z,3.80
2022-08-01T23:45:36.146Z,4.40
2022-08-01T23:48:20.317Z,2.60
2022-08-01T23:50:47.531Z,3.00
2022-08-01T23:53:14.735Z,3.50
2022-08-01T23:55:43.320Z,3.80
2022-08-01T23:58:12.004Z,4.30
